createdAt,value
2022-11-29T00:02:40.562Z,41.10
2022-11-29T00:07:44.222Z,43.60
2022-11-29T00:12:47.704Z,40.50
2022-11-29T00:17:51.143Z,41.40
2022-11-29T00:22:54.538Z,44.10
2022-11-29T00:27:57.944Z,40.20
2022-11-29T00:33:03.127Z,43.70
2022-11-29T00:38:06.519Z,46.60
2022-11-29T00:43:10.013Z,41.60
2022-11-29T00:48:13.400Z,43.20
2022-11-29T00:53:16.818Z,43.80
2022-11-29T00:58:20.299Z,43.10
2022-11-29T01:03:23.708Z,42.70
2022-11-29T01:08:28.168Z,39.00
2022-11-29T01:13:31.577Z,45.70
2022-11-29T01:18:35.004Z,40.60
2022-11-29T01:23:38.392Z,45.80
2022-11-29T01:28:42.163Z,46.70
2022-11-29T01:33:45.705Z,43.90
2022-11-29T01:38:49.120Z,42.00
2022-11-29T01:43:52.525Z,43.20
2022-11-29T01:48:55.907Z,46.90
2022-11-29T01:53:59.307Z,50.20
2022-11-29T01:59:02.719Z,44.10
2022-11-29T02:04:06.083Z,44.30
2022-11-29T02:09:09.516Z,47.40
2022-11-29T02:14:12.931Z,46.70
2022-11-29T02:19:16.306Z,45.60
2022-11-29T02:24:20.865Z,45.60
2022-11-29T02:29:24.330Z,49.70
2022-11-29T02:34:27.971Z,48.20
2022-11-29T02:39:31.389Z,48.10
2022-11-29T02:44:34.772Z,52.60
2022-11-29T02:49:38.144Z,52.70
2022-11-29T02:54:41.700Z,54.30
2022-11-29T02:59:45.452Z,53.30
2022-11-29T03:04:48.878Z,49.70
2022-11-29T03:09:52.288Z,49.30
2022-11-29T03:14:55.776Z,48.30
2022-11-29T03:19:59.374Z,52.40
2022-11-29T03:25:02.788Z,51.00
2022-11-29T03:30:06.170Z,55.30
2022-11-29T03:35:09.554Z,52.00
2022-11-29T03:40:12.929Z,53.90
2022-11-29T03:45:16.357Z,51.00
2022-11-29T03:50:19.830Z,55.90
2022-11-29T03:55:23.253Z,52.20
2022-11-29T04:00:26.708Z,58.40
2022-11-29T04:05:30.349Z,55.70
2022-11-29T04:10:33.792Z,56.50
2022-11-29T04:15:37.507Z,54.90
2022-11-29T04:20:44.172Z,53.30
2022-11-29T04:25:51.393Z,56.10
2022-11-29T04:30:54.802Z,51.00
2022-11-29T04:35:58.245Z,54.40
2022-11-29T04:41:01.686Z,54.80
2022-11-29T04:46:05.173Z,52.50
2022-11-29T04:51:09.737Z,58.20
2022-11-29T04:56:13.183Z,53.40
2022-11-29T05:01:16.653Z,58.10
2022-11-29T05:06:20.327Z,57.70
2022-11-29T05:11:26.944Z,52.40
2022-11-29T05:16:30.931Z,60.70
2022-11-29T05:21:34.326Z,58.70
2022-11-29T05:26:37.687Z,65.00
2022-11-29T05:31:41.289Z,62.30
2022-11-29T05:36:44.724Z,64.80
2022-11-29T05:41:48.128Z,63.50
2022-11-29T05:46:52.592Z,64.30
2022-11-29T05:51:56.030Z,65.20
2022-11-29T05:56:59.456Z,74.20
2022-11-29T06:02:02.888Z,71.10
2022-11-29T06:07:07.128Z,68.30
2022-11-29T06:17:13.928Z,67.80
2022-11-29T06:22:20.996Z,66.50
2022-11-29T06:27:24.577Z,67.90
2022-11-29T06:32:28.132Z,68.10
2022-11-29T06:37:31.503Z,68.20
2022-11-29T06:42:35.005Z,63.60
2022-11-29T06:47:38.482Z,66.80
2022-11-29T06:52:41.977Z,67.00
2022-11-29T06:57:45.475Z,63.30
2022-11-29T07:02:48.917Z,67.40
2022-11-29T07:07:53.221Z,69.10
2022-11-29T07:12:56.748Z,68.40
2022-11-29T07:18:00.146Z,60.60
2022-11-29T07:23:03.571Z,68.90
2022-11-29T07:28:06.978Z,67.30
2022-11-29T07:33:10.391Z,64.90
2022-11-29T07:38:13.850Z,74.90
2022-11-29T07:43:17.604Z,66.10
2022-11-29T07:48:21.069Z,65.00
2022-11-29T07:53:24.454Z,65.80
2022-11-29T07:58:27.980Z,67.20
2022-11-29T08:03:32.973Z,67.90
2022-11-29T08:08:42.217Z,68.40
2022-11-29T08:13:47.684Z,62.70
2022-11-29T08:18:52.160Z,60.80
2022-11-29T08:23:55.577Z,63.70
2022-11-29T08:28:58.968Z,65.10
2022-11-29T08:34:02.413Z,63.80
2022-11-29T08:39:09.151Z,64.90
2022-11-29T08:44:13.177Z,64.00
2022-11-29T08:49:16.606Z,62.90
2022-11-29T08:54:20.067Z,58.10
2022-11-29T08:59:23.451Z,52.20
2022-11-29T09:04:26.831Z,53.90
2022-11-29T09:09:30.211Z,51.40
2022-11-29T09:14:33.599Z,50.30
2022-11-29T09:19:37.025Z,52.20
2022-11-29T09:24:40.429Z,45.30
2022-11-29T09:29:43.929Z,52.70
2022-11-29T09:34:47.748Z,54.80
2022-11-29T09:39:51.342Z,59.40
2022-11-29T09:44:54.724Z,51.20
2022-11-29T09:49:58.129Z,54.10
2022-11-29T09:55:01.657Z,51.50
2022-11-29T10:00:05.078Z,50.10
2022-11-29T10:05:08.815Z,53.60
2022-11-29T10:10:12.198Z,50.20
2022-11-29T10:15:17.026Z,44.20
2022-11-29T10:20:20.571Z,42.20
2022-11-29T10:25:24.031Z,40.40
2022-11-29T10:30:27.545Z,41.70
2022-11-29T10:35:31.081Z,42.50
2022-11-29T10:40:34.660Z,38.00
2022-11-29T10:45:39.083Z,40.80
2022-11-29T10:50:44.017Z,39.00
2022-11-29T10:55:47.428Z,39.20
2022-11-29T11:00:50.960Z,36.50
2022-11-29T11:05:54.572Z,34.80
2022-11-29T11:11:01.838Z,31.80
2022-11-29T11:16:05.750Z,36.20
2022-11-29T11:21:09.234Z,35.10
2022-11-29T11:26:12.712Z,32.00
2022-11-29T11:31:16.288Z,29.60
2022-11-29T11:36:20.863Z,34.30
2022-11-29T11:41:44.307Z,28.80
2022-11-29T11:46:47.724Z,28.90
2022-11-29T11:51:51.192Z,31.20
2022-11-29T11:56:54.595Z,30.80
2022-11-29T12:01:59.097Z,26.90
2022-11-29T12:07:02.951Z,28.20
2022-11-29T12:12:06.340Z,28.00
2022-11-29T12:17:09.757Z,27.20
2022-11-29T12:22:13.265Z,29.40
2022-11-29T12:27:16.776Z,31.00
2022-11-29T12:32:20.302Z,32.20
2022-11-29T12:37:23.829Z,28.20
2022-11-29T12:42:27.237Z,27.10
2022-11-29T12:47:37.982Z,25.70
2022-11-29T12:52:43.607Z,25.60
2022-11-29T12:57:47.065Z,25.20
2022-11-29T13:02:50.558Z,24.20
2022-11-29T13:07:54.341Z,25.90
2022-11-29T13:12:57.727Z,24.90
2022-11-29T13:18:01.116Z,25.60
2022-11-29T13:23:04.508Z,24.40
2022-11-29T13:28:07.916Z,23.10
2022-11-29T13:33:11.343Z,22.20
2022-11-29T13:38:14.786Z,25.10
2022-11-29T13:43:19.322Z,19.90
2022-11-29T13:48:27.853Z,24.30
2022-11-29T13:53:31.633Z,23.40
2022-11-29T13:58:35.020Z,21.50
2022-11-29T14:03:38.961Z,22.40
2022-11-29T14:14:05.859Z,21.20
2022-11-29T14:19:09.749Z,23.00
2022-11-29T14:24:13.261Z,21.60
2022-11-29T14:29:16.648Z,22.10
2022-11-29T14:34:20.161Z,23.90
2022-11-29T14:39:23.697Z,23.20
2022-11-29T14:44:28.179Z,25.70
2022-11-29T14:49:31.696Z,24.80
2022-11-29T14:54:35.281Z,25.60
2022-11-29T14:59:38.812Z,28.20
2022-11-29T15:04:42.233Z,25.50
2022-11-29T15:09:45.612Z,23.00
2022-11-29T15:14:49.207Z,23.40
2022-11-29T15:19:52.592Z,24.40
2022-11-29T15:24:56.038Z,26.20
2022-11-29T15:29:59.998Z,24.30
2022-11-29T15:40:06.835Z,25.50
2022-11-29T15:45:10.254Z,27.20
2022-11-29T15:50:13.709Z,27.10
2022-11-29T15:55:17.204Z,26.90
2022-11-29T16:00:21.678Z,32.40
2022-11-29T16:05:25.090Z,30.80
2022-11-29T16:10:34.852Z,30.60
2022-11-29T16:20:45.462Z,26.80
2022-11-29T16:25:48.828Z,30.80
2022-11-29T16:30:52.195Z,32.00
2022-11-29T16:35:55.576Z,29.50
2022-11-29T16:40:59.012Z,30.70
2022-11-29T16:46:02.498Z,58.90
2022-11-29T16:51:05.914Z,51.30
2022-11-29T16:56:09.395Z,68.30
2022-11-29T17:01:12.846Z,46.10
2022-11-29T17:06:16.379Z,43.70
2022-11-29T17:11:19.874Z,41.40
2022-11-29T17:16:23.383Z,42.30
2022-11-29T17:21:26.899Z,41.80
2022-11-29T17:26:30.512Z,43.00
2022-11-29T17:31:34.002Z,39.80
2022-11-29T17:36:37.590Z,39.00
2022-11-29T17:41:40.958Z,39.10
2022-11-29T17:46:44.374Z,38.90
2022-11-29T17:51:52.598Z,41.10
2022-11-29T17:56:56.638Z,40.20
2022-11-29T18:02:03.930Z,41.00
2022-11-29T18:07:07.439Z,37.20
2022-11-29T18:12:13.784Z,39.10
2022-11-29T18:17:17.163Z,41.50
2022-11-29T18:22:20.585Z,45.00
2022-11-29T18:27:24.145Z,43.90
2022-11-29T18:32:27.623Z,41.00
2022-11-29T18:37:57.434Z,38.80
2022-11-29T18:42:54.329Z,39.20
2022-11-29T18:47:57.892Z,38.40
2022-11-29T18:53:01.497Z,37.40
2022-11-29T18:58:06.635Z,40.80
2022-11-29T19:03:10.036Z,40.30
2022-11-29T19:08:13.474Z,36.70
2022-11-29T19:13:16.909Z,44.40
2022-11-29T19:18:20.313Z,39.80
2022-11-29T19:23:23.892Z,36.40
2022-11-29T19:28:27.247Z,36.30
2022-11-29T19:33:30.611Z,37.20
2022-11-29T19:38:33.999Z,38.50
2022-11-29T19:43:37.479Z,36.80
2022-11-29T19:48:40.915Z,39.20
2022-11-29T19:53:44.324Z,34.70
2022-11-29T19:58:47.763Z,33.10
2022-11-29T20:03:51.290Z,34.50
2022-11-29T20:08:54.744Z,32.00
2022-11-29T20:13:58.191Z,35.10
2022-11-29T20:19:01.655Z,35.70
2022-11-29T20:24:05.175Z,35.60
2022-11-29T20:29:08.619Z,34.40
2022-11-29T20:34:12.168Z,34.00
2022-11-29T20:39:15.578Z,35.00
2022-11-29T20:44:19.013Z,33.00
2022-11-29T20:49:22.421Z,32.80
2022-11-29T20:54:25.800Z,33.50
2022-11-29T20:59:29.168Z,32.40
2022-11-29T21:04:32.523Z,31.80
2022-11-29T21:09:35.915Z,29.90
2022-11-29T21:14:39.300Z,25.70
2022-11-29T21:19:42.684Z,28.40
2022-11-29T21:24:47.225Z,29.90
2022-11-29T21:29:50.787Z,28.70
2022-11-29T21:34:54.147Z,28.10
2022-11-29T21:39:57.600Z,28.20
2022-11-29T21:45:00.986Z,28.70
2022-11-29T21:50:04.362Z,31.00
2022-11-29T21:55:07.752Z,25.20
2022-11-29T22:00:11.207Z,26.70
2022-11-29T22:05:14.595Z,28.00
2022-11-29T22:10:18.005Z,25.80
2022-11-29T22:15:24.837Z,27.00
2022-11-29T22:20:28.900Z,24.30
2022-11-29T22:25:32.327Z,26.80
2022-11-29T22:30:35.934Z,27.10
2022-11-29T22:35:39.350Z,25.00
2022-11-29T22:40:42.769Z,24.40
2022-11-29T22:45:46.179Z,26.40
2022-11-29T22:50:49.584Z,23.80
2022-11-29T22:55:53.056Z,23.90
2022-11-29T23:00:56.474Z,20.90
2022-11-29T23:06:01.911Z,22.70
2022-11-29T23:11:05.270Z,23.80
2022-11-29T23:16:08.687Z,24.70
2022-11-29T23:21:12.179Z,25.00
2022-11-29T23:26:15.531Z,22.30
2022-11-29T23:31:18.957Z,20.50
2022-11-29T23:36:22.354Z,25.00
2022-11-29T23:41:25.800Z,21.30
2022-11-29T23:46:29.179Z,21.90
2022-11-29T23:51:32.543Z,22.30
2022-11-29T23:56:36.107Z,20.60
